Aeroporto :
LOGIN :

Iscrizione | Disclaimer

   EN    FR    IT 

 










Sommario :    VFR   VFR Marginale   IFR   IFR Intensivo   IFR Molto Intensivo
Visibilità : 
Base nubi : 
>= 8 km
>= 3000ft
5 / 8 km
1000 / 3000 ft
1500m / 5 km
500 / 1000 ft
800 / 1500m
200 / 500 ft
< 800m
< 200 ft
Simboli :   Temporali  Nebbia  Neve Forte  Precipitazioni Forti  Vento > 20 kt
SIGMETs :   Varie  Temporali  Ghiacco  Turbolenza  Onda orograficha  Ceneri Vulcaniche







- Altitudine del aeroporto : 0 ft


ENSL - Sleipner A Platform

ULTIMO METAR :
  • 210350Z AUTO 20030KT 9999NDV NCD 10/06 Q1022 W05/S2

METARs OBSOLETI :
  • 210320Z AUTO 20028KT 9999NDV FEW190/// 09/06 Q1022 W05/S3
  • 210250Z AUTO 21026KT 9999NDV FEW200/// 09/06 Q1023 W05/S2
  • 210220Z AUTO 21023KT 9999NDV FEW140/// SCT200/// 09/06 Q1024 W05/S3
  • 210150Z AUTO 21020KT 9999NDV NCD 09/07 Q1024 W05/S3
  • 210120Z AUTO 21019KT 9999NDV NCD 09/07 Q1025 W05/S3

Previsioni scadute.
Nessun NOTAM noto per questo aeroporto.



MetMap, La meteo Aeronautica in un colpo d'occhio ! - Copyright ORBIFLY Dicembre 2007 - Disclaimer

ORBIFLY MET'MAP TEAM :

Programmazione e sviluppo : Alexandra Zaïnal
Concezione e sviluppo : Baudouin d'Aumeries
Co-Programmazione e sviluppo : Marc-Olivier Méhu
Supporto tecnico e logistico : Manuel Goepfert
Aiuto per la traduzione : Arnaldo La Scala

Contatto : metmap@orbifly.com




FONTI E CREDITI :

   NOAA